Meraux, LA (70075)

12:22 PM CST on December 28, 2014 (GMT -0600)
HOV/BCO/BCEL | Change Station
CLOSE
Current Station
Personal Weather Station
Location: Belle Chasse, LA
Elevation: 36 ft
Nearby Weather Stations

Elev 36 ft 29.89 °N, 89.98 °W | Updated 57 seconds ago

Overcast
Overcast
61.8 °F
Feels Like 61.8 °F
N
6.0
Wind Variable Wind from NW
Gusts 6.0 mph

Today
High -- | Low -- °F
--% Chance of Precip.
Yesterday
High -- | Low -- °F
Precip. -- in
6:54 AM 5:08 PM
Waxing Crescent, 50% visible
Pressure 30.06 in
Visibility 2.5 miles
Clouds Overcast 300 ft
Dew Point 61 °F
Humidity 96%
Rainfall 0.00 in
Snow Depth Not available.
UV 1 out of 12
Pollen 1.60 out of 12
Air Quality Not available.
Flu Activity Not available.
SPECI KNEW 281813Z AUTO 31015KT 2 1/2SM BR OVC003 16/14 A3006 RMK AO2 T01610144 TSNO

More Conditions Fewer Conditions

Pressure 30.06 in
Visibility 2.5 miles
Clouds Overcast 300 ft
Dew Point 61 °F
Humidity 96%
Rainfall 0.00 in
Snow Depth Not available.
UV 1 out of 12
Pollen 1.60 out of 12
Air Quality Not available.
Flu Activity Not available.
SPECI KNEW 281813Z AUTO 31015KT 2 1/2SM BR OVC003 16/14 A3006 RMK AO2 T01610144 TSNO

More Conditions Fewer Conditions

10-Day Weather Forecast

Almanac

Astronomy

Dec. 28, 2014 Rise Set
Actual Time
Civil Twilight
Nautical Twilight
Astronomical Twilight
Moon
Length of Visible Light
Length of Day
Tomorrow will be .
, % of the Moon is Illuminated

Today's Extremes

State Highs State Lows

Community

WunderPhotos

Upload Photos

1,781,379 photos uploaded!

WunderBlogs® & News

Nearby

Air Quality

  Air Quality AQ Index Pollutant
Not available.

Snow Depth

Station Depth Elevation

Earthquake Activity

City Distance Mag. Time & Date
Minimum magnitude displayed is 2.5.

Coastal Water Temperatures

Place Temperature

Nearby Weather Stations